Time;durP1;ratioP1;P1;durP2;ratioP2;P2;SDS_P1;SDS_P2;PMS_P1;PMS_P2;Temp;Humidity;BMP_temperature;BMP_pressure;BME280_temperature;BME280_humidity;BME280_pressure;Samples;Min_cycle;Max_cycle;Signal;HPM_P1;HPM_P2
2023/02/20 00:01:52;;;;;;;1.13;1.00;;;;;;;;;;6187815;28;20294;-81
2023/02/20 00:04:57;;;;;;;1.00;1.00;;;;;;;;;;6187756;28;20362;-81
2023/02/20 00:08:13;;;;;;;2.67;1.00;;;;;;;;;;6187545;28;20307;-81
2023/02/20 00:11:18;;;;;;;4.00;1.00;;;;;;;;;;6202494;28;20295;-82
2023/02/20 00:14:24;;;;;;;0.97;0.97;;;;;;;;;;6226301;28;20299;-81
2023/02/20 00:17:29;;;;;;;2.90;1.00;;;;;;;;;;6209859;28;20302;-81
2023/02/20 00:20:37;;;;;;;3.00;1.13;;;;;;;;;;6211669;28;20290;-81
2023/02/20 00:23:44;;;;;;;1.80;0.70;;;;;;;;;;6226124;28;20315;-82
2023/02/20 00:26:52;;;;;;;1.03;1.03;;;;;;;;;;6210799;28;20295;-82
2023/02/20 00:29:57;;;;;;;6.27;1.07;;;;;;;;;;6211732;28;20310;-82
2023/02/20 00:33:02;;;;;;;2.70;0.90;;;;;;;;;;6210465;28;20299;-81
2023/02/20 00:36:08;;;;;;;0.80;0.80;;;;;;;;;;6194292;28;20284;-82
2023/02/20 00:39:15;;;;;;;1.07;1.07;;;;;;;;;;6185703;28;20308;-81
2023/02/20 00:42:22;;;;;;;3.87;0.90;;;;;;;;;;6187663;28;20279;-82
2023/02/20 00:45:27;;;;;;;1.60;1.17;;;;;;;;;;6185514;28;20572;-81
2023/02/20 00:48:33;;;;;;;6.23;1.10;;;;;;;;;;6201527;28;20288;-82
2023/02/20 00:51:56;;;;;;;2.10;1.00;;;;;;;;;;6187656;28;20301;-81
2023/02/20 00:55:03;;;;;;;3.20;1.00;;;;;;;;;;6187115;28;20354;-81
2023/02/20 00:58:11;;;;;;;1.53;1.33;;;;;;;;;;6202269;28;20300;-81
2023/02/20 01:01:16;;;;;;;1.00;1.00;;;;;;;;;;6190229;28;20622;-82
2023/02/20 01:04:22;;;;;;;1.30;0.80;;;;;;;;;;6189577;28;20300;-82
2023/02/20 01:07:27;;;;;;;2.00;1.47;;;;;;;;;;6206371;28;20300;-82
2023/02/20 01:10:33;;;;;;;1.60;0.93;;;;;;;;;;6199347;28;20294;-82
2023/02/20 01:13:39;;;;;;;0.90;0.90;;;;;;;;;;6229832;28;20311;-81
2023/02/20 01:16:45;;;;;;;1.57;0.97;;;;;;;;;;6215043;28;20592;-81
2023/02/20 01:19:51;;;;;;;0.90;0.90;;;;;;;;;;6215451;28;20298;-81
2023/02/20 01:22:57;;;;;;;7.10;0.97;;;;;;;;;;6230282;28;20304;-82
2023/02/20 01:26:04;;;;;;;1.20;1.10;;;;;;;;;;6216049;28;20480;-82
2023/02/20 01:29:11;;;;;;;6.03;1.30;;;;;;;;;;6215283;28;20308;-81
2023/02/20 01:32:17;;;;;;;2.47;1.10;;;;;;;;;;6215082;28;20304;-81
2023/02/20 01:35:22;;;;;;;2.43;1.30;;;;;;;;;;6220583;28;20607;-81
2023/02/20 01:38:27;;;;;;;4.93;1.30;;;;;;;;;;6205524;28;20294;-81
2023/02/20 01:41:34;;;;;;;2.67;1.13;;;;;;;;;;6190858;28;20300;-81
2023/02/20 01:44:41;;;;;;;3.50;1.00;;;;;;;;;;6205474;28;20307;-81
2023/02/20 01:47:46;;;;;;;2.73;1.00;;;;;;;;;;6205076;28;20604;-81
2023/02/20 01:50:55;;;;;;;2.00;1.10;;;;;;;;;;6189285;28;20310;-81
2023/02/20 01:54:01;;;;;;;1.17;0.93;;;;;;;;;;6190466;28;20308;-81
2023/02/20 01:57:12;;;;;;;0.87;0.87;;;;;;;;;;6193107;28;20267;-81
2023/02/20 02:00:20;;;;;;;0.90;0.90;;;;;;;;;;6207755;28;20295;-82
2023/02/20 02:03:27;;;;;;;1.13;1.00;;;;;;;;;;6189325;28;20299;-82
2023/02/20 02:06:33;;;;;;;1.87;0.93;;;;;;;;;;6189740;28;20287;-81
2023/02/20 02:09:43;;;;;;;1.10;1.00;;;;;;;;;;6189025;28;20572;-81
2023/02/20 02:12:52;;;;;;;1.07;0.93;;;;;;;;;;6212165;28;20304;-81
2023/02/20 02:16:06;;;;;;;0.90;0.90;;;;;;;;;;6214096;28;20381;-82
2023/02/20 02:19:27;;;;;;;0.83;0.83;;;;;;;;;;6228981;28;20299;-81
2023/02/20 02:22:57;;;;;;;0.80;0.80;;;;;;;;;;6214682;28;20474;-80
2023/02/20 02:26:12;;;;;;;1.07;0.97;;;;;;;;;;6214547;28;20294;-82
2023/02/20 02:29:58;;;;;;;1.00;1.00;;;;;;;;;;6213901;28;20483;-81
2023/02/20 02:33:32;;;;;;;2.77;1.00;;;;;;;;;;6193903;28;20308;-81
2023/02/20 02:37:00;;;;;;;1.80;1.17;;;;;;;;;;6192866;28;20292;-81
2023/02/20 02:40:11;;;;;;;2.50;1.00;;;;;;;;;;6187189;28;20597;-81
2023/02/20 02:43:18;;;;;;;2.00;1.03;;;;;;;;;;6188951;28;20464;-81
2023/02/20 02:46:28;;;;;;;2.07;1.00;;;;;;;;;;6189632;28;20300;-81
2023/02/20 02:49:38;;;;;;;3.17;0.97;;;;;;;;;;6203453;28;20296;-81
2023/02/20 02:52:48;;;;;;;2.30;1.10;;;;;;;;;;6187488;28;20292;-81
2023/02/20 02:55:53;;;;;;;3.60;0.90;;;;;;;;;;6188149;28;20291;-81
2023/02/20 02:58:59;;;;;;;1.20;0.90;;;;;;;;;;6188520;28;20299;-81
2023/02/20 03:02:07;;;;;;;1.00;1.00;;;;;;;;;;6188687;28;20472;-81
2023/02/20 03:05:19;;;;;;;0.90;0.90;;;;;;;;;;6187121;28;20296;-81
2023/02/20 03:08:31;;;;;;;3.63;1.10;;;;;;;;;;6187958;28;20295;-82
2023/02/20 03:11:39;;;;;;;3.20;0.97;;;;;;;;;;6204347;28;20293;-82
2023/02/20 03:18:19;;;;;;;1.77;0.93;;;;;;;;;;6209942;28;20298;-81
2023/02/20 03:21:24;;;;;;;2.37;1.00;;;;;;;;;;6212320;28;20302;-82
2023/02/20 03:24:53;;;;;;;2.30;1.23;;;;;;;;;;6226036;28;20295;-81
2023/02/20 03:28:03;;;;;;;0.90;0.90;;;;;;;;;;6226615;28;20295;-82
2023/02/20 03:31:10;;;;;;;0.90;0.90;;;;;;;;;;6212859;28;20303;-82
2023/02/20 03:44:31;;;;;;;3.20;0.93;;;;;;;;;;6161980;28;20308;-82
2023/02/20 03:47:39;;;;;;;2.73;1.10;;;;;;;;;;6161203;28;20297;-81
2023/02/20 03:50:45;;;;;;;1.10;1.10;;;;;;;;;;6162429;28;20297;-82
2023/02/20 03:53:50;;;;;;;0.90;0.90;;;;;;;;;;6145708;28;20292;-82
2023/02/20 03:57:01;;;;;;;2.67;1.20;;;;;;;;;;6161423;28;20305;-81
2023/02/20 04:00:11;;;;;;;3.90;1.20;;;;;;;;;;6160778;28;20292;-81
2023/02/20 04:03:28;;;;;;;1.13;1.13;;;;;;;;;;6188810;28;20295;-81
2023/02/20 04:06:35;;;;;;;1.23;1.10;;;;;;;;;;6217399;28;20296;-81
2023/02/20 04:09:44;;;;;;;4.20;1.07;;;;;;;;;;6200978;28;20294;-81
2023/02/20 04:12:52;;;;;;;1.50;1.40;;;;;;;;;;6161965;28;20308;-82
2023/02/20 04:16:00;;;;;;;2.00;0.90;;;;;;;;;;6161938;28;20295;-81
2023/02/20 04:19:05;;;;;;;2.40;1.10;;;;;;;;;;6174774;28;20299;-81
2023/02/20 04:22:14;;;;;;;0.90;0.90;;;;;;;;;;6226712;28;20302;-81
2023/02/20 04:25:25;;;;;;;2.93;1.10;;;;;;;;;;6226257;28;20327;-82
2023/02/20 04:28:33;;;;;;;3.70;1.03;;;;;;;;;;6210779;28;20482;-81
2023/02/20 04:31:41;;;;;;;6.13;1.23;;;;;;;;;;6210588;28;20304;-82
2023/02/20 04:34:49;;;;;;;6.53;1.20;;;;;;;;;;6205624;28;20303;-81
2023/02/20 04:37:55;;;;;;;2.50;1.10;;;;;;;;;;6227278;28;20297;-82
2023/02/20 04:41:03;;;;;;;3.70;1.27;;;;;;;;;;6199400;28;20383;-81
2023/02/20 04:47:49;;;;;;;6.20;1.10;;;;;;;;;;6219593;28;20259;-80
2023/02/20 04:50:55;;;;;;;3.13;1.10;;;;;;;;;;6247421;28;20290;-79
2023/02/20 04:54:00;;;;;;;3.27;0.97;;;;;;;;;;6230700;28;20253;-82
2023/02/20 04:57:05;;;;;;;1.60;1.20;;;;;;;;;;6229984;28;20289;-80
2023/02/20 05:00:14;;;;;;;3.00;1.17;;;;;;;;;;6229650;28;20299;-80
2023/02/20 05:03:19;;;;;;;2.20;0.90;;;;;;;;;;6219532;28;20587;-82
2023/02/20 05:06:25;;;;;;;2.90;1.20;;;;;;;;;;6216254;28;20294;-81
2023/02/20 05:09:31;;;;;;;8.63;1.20;;;;;;;;;;6214014;28;20297;-81
2023/02/20 05:12:37;;;;;;;1.10;1.00;;;;;;;;;;6192094;28;20300;-80
2023/02/20 05:15:43;;;;;;;3.30;1.23;;;;;;;;;;6191757;28;20323;-81
2023/02/20 05:18:48;;;;;;;2.67;1.00;;;;;;;;;;6191244;28;20308;-82
2023/02/20 05:25:16;;;;;;;3.60;1.10;;;;;;;;;;6191910;28;20300;-81
2023/02/20 05:28:40;;;;;;;1.43;1.00;;;;;;;;;;6190409;28;20297;-81
2023/02/20 05:31:47;;;;;;;2.30;1.30;;;;;;;;;;6191575;28;20305;-81
2023/02/20 05:34:52;;;;;;;5.80;1.43;;;;;;;;;;6188850;28;20295;-82
2023/02/20 05:37:58;;;;;;;4.27;1.00;;;;;;;;;;6189225;28;20299;-81
2023/02/20 05:41:03;;;;;;;2.57;0.90;;;;;;;;;;6189412;28;20295;-82
2023/02/20 05:44:08;;;;;;;6.23;1.00;;;;;;;;;;6188839;28;20306;-82
2023/02/20 05:47:15;;;;;;;2.20;1.20;;;;;;;;;;6190838;28;20303;-80
2023/02/20 05:50:25;;;;;;;1.07;0.97;;;;;;;;;;6190981;28;20588;-81
2023/02/20 05:53:31;;;;;;;0.80;0.80;;;;;;;;;;6203102;28;20303;-82
2023/02/20 05:56:40;;;;;;;1.27;1.00;;;;;;;;;;6189490;28;20604;-81
2023/02/20 05:59:45;;;;;;;1.27;1.00;;;;;;;;;;6189985;28;20312;-82
2023/02/20 06:02:52;;;;;;;0.90;0.90;;;;;;;;;;6189774;28;20307;-80
2023/02/20 06:05:57;;;;;;;1.00;1.00;;;;;;;;;;6204856;28;20299;-81
2023/02/20 06:09:03;;;;;;;1.17;1.00;;;;;;;;;;6199899;28;20304;-80
2023/02/20 06:12:09;;;;;;;1.47;1.00;;;;;;;;;;6212025;28;20271;-82
2023/02/20 06:15:15;;;;;;;5.70;1.20;;;;;;;;;;6214004;28;20313;-83
2023/02/20 06:18:21;;;;;;;1.53;1.00;;;;;;;;;;6213324;28;20295;-82
2023/02/20 06:21:27;;;;;;;1.07;1.07;;;;;;;;;;6228605;28;20296;-83
2023/02/20 06:24:34;;;;;;;0.83;0.83;;;;;;;;;;6228479;28;20291;-82
2023/02/20 06:27:40;;;;;;;0.80;0.80;;;;;;;;;;6212068;28;20298;-82
2023/02/20 06:30:47;;;;;;;0.70;0.70;;;;;;;;;;6214038;28;20292;-82
2023/02/20 06:33:54;;;;;;;1.90;0.90;;;;;;;;;;6227682;28;20310;-81
2023/02/20 06:37:01;;;;;;;1.10;0.97;;;;;;;;;;6205751;28;20496;-82
2023/02/20 06:40:08;;;;;;;1.00;1.00;;;;;;;;;;6203724;28;20594;-82
2023/02/20 06:43:14;;;;;;;1.03;1.03;;;;;;;;;;6187829;28;20291;-81
2023/02/20 06:46:21;;;;;;;1.77;1.13;;;;;;;;;;6187832;28;20604;-82
2023/02/20 06:49:28;;;;;;;1.70;1.20;;;;;;;;;;6188981;28;20290;-82
2023/02/20 06:52:33;;;;;;;2.00;1.20;;;;;;;;;;6189296;28;20295;-82
2023/02/20 06:55:38;;;;;;;1.87;1.53;;;;;;;;;;6188534;28;20300;-82
2023/02/20 06:58:43;;;;;;;0.97;0.90;;;;;;;;;;6189282;28;20291;-81
2023/02/20 07:01:48;;;;;;;0.90;0.90;;;;;;;;;;6203992;28;20580;-82
2023/02/20 07:04:55;;;;;;;1.20;1.20;;;;;;;;;;6188497;28;20596;-82
2023/02/20 07:08:01;;;;;;;0.90;0.90;;;;;;;;;;6188185;28;20298;-81
2023/02/20 07:11:06;;;;;;;1.00;1.00;;;;;;;;;;6201765;28;20294;-82
2023/02/20 07:14:11;;;;;;;2.63;1.00;;;;;;;;;;6211212;28;20297;-82
2023/02/20 07:17:17;;;;;;;1.10;1.10;;;;;;;;;;6213323;28;20299;-82
2023/02/20 07:20:24;;;;;;;1.30;1.10;;;;;;;;;;6211350;28;20460;-81
2023/02/20 07:23:29;;;;;;;0.80;0.80;;;;;;;;;;6212153;28;20295;-82
2023/02/20 07:26:36;;;;;;;1.50;1.00;;;;;;;;;;6212352;28;20470;-82
2023/02/20 07:29:41;;;;;;;1.00;1.00;;;;;;;;;;6213099;28;20302;-80
2023/02/20 07:32:46;;;;;;;1.67;0.90;;;;;;;;;;6212068;28;20305;-83
2023/02/20 07:35:53;;;;;;;0.80;0.80;;;;;;;;;;6200809;28;20290;-82
2023/02/20 07:39:00;;;;;;;0.77;0.77;;;;;;;;;;6203055;28;20304;-82
2023/02/20 07:42:06;;;;;;;0.80;0.80;;;;;;;;;;6187485;28;20271;-81
2023/02/20 07:45:28;;;;;;;0.80;0.80;;;;;;;;;;6187362;28;20344;-80
2023/02/20 07:48:37;;;;;;;0.80;0.80;;;;;;;;;;6187961;28;20295;-81
2023/02/20 07:51:44;;;;;;;1.03;0.80;;;;;;;;;;6188285;28;20311;-81
2023/02/20 07:54:52;;;;;;;0.90;0.90;;;;;;;;;;6187332;28;20293;-81
2023/02/20 07:57:57;;;;;;;0.83;0.83;;;;;;;;;;6186268;28;20317;-81
2023/02/20 08:01:03;;;;;;;0.80;0.80;;;;;;;;;;6188581;28;20301;-80
2023/02/20 08:04:08;;;;;;;0.90;0.90;;;;;;;;;;6188869;28;20318;-81
2023/02/20 08:07:15;;;;;;;0.70;0.70;;;;;;;;;;6188194;28;20511;-82
2023/02/20 08:10:24;;;;;;;0.93;0.93;;;;;;;;;;6193813;28;20296;-81
2023/02/20 08:13:29;;;;;;;0.80;0.80;;;;;;;;;;6211493;28;20285;-81
2023/02/20 08:16:34;;;;;;;0.60;0.60;;;;;;;;;;6214342;28;20296;-81
2023/02/20 08:19:40;;;;;;;0.60;0.60;;;;;;;;;;6214737;28;20290;-81
2023/02/20 08:22:47;;;;;;;0.60;0.60;;;;;;;;;;6213519;28;20302;-81
2023/02/20 08:25:53;;;;;;;2.50;0.70;;;;;;;;;;6212866;28;20421;-81
2023/02/20 08:28:59;;;;;;;0.70;0.70;;;;;;;;;;6202065;28;20306;-81
2023/02/20 08:32:05;;;;;;;0.60;0.60;;;;;;;;;;6183810;28;20606;-81
2023/02/20 08:35:11;;;;;;;0.60;0.60;;;;;;;;;;6194399;28;20598;-82
2023/02/20 08:38:29;;;;;;;0.60;0.60;;;;;;;;;;6210805;28;20298;-80
2023/02/20 08:41:34;;;;;;;0.60;0.60;;;;;;;;;;6211306;28;20548;-82
2023/02/20 08:44:41;;;;;;;0.70;0.70;;;;;;;;;;6210692;28;20301;-81
2023/02/20 08:47:47;;;;;;;3.03;0.70;;;;;;;;;;6210743;28;20597;-80
2023/02/20 08:50:53;;;;;;;0.60;0.60;;;;;;;;;;6209917;28;20298;-81
2023/02/20 08:53:59;;;;;;;0.60;0.60;;;;;;;;;;6210662;28;20301;-82
2023/02/20 08:57:04;;;;;;;0.60;0.60;;;;;;;;;;6210105;28;20297;-81
2023/02/20 09:00:13;;;;;;;2.33;0.60;;;;;;;;;;6210166;28;20303;-81
2023/02/20 09:03:18;;;;;;;0.70;0.70;;;;;;;;;;6208827;28;20294;-81
2023/02/20 09:06:25;;;;;;;0.63;0.60;;;;;;;;;;6226476;28;20301;-81
2023/02/20 09:09:31;;;;;;;0.93;0.70;;;;;;;;;;6208552;28;20286;-80
2023/02/20 09:12:38;;;;;;;0.60;0.60;;;;;;;;;;6186485;28;20294;-79
2023/02/20 09:15:43;;;;;;;0.60;0.60;;;;;;;;;;6186346;28;20484;-80
2023/02/20 09:18:56;;;;;;;0.70;0.67;;;;;;;;;;6185530;28;20500;-81
2023/02/20 09:22:01;;;;;;;0.70;0.70;;;;;;;;;;6187418;28;20298;-81
2023/02/20 09:25:10;;;;;;;1.70;0.90;;;;;;;;;;6191070;28;20503;-81
2023/02/20 09:28:16;;;;;;;1.10;0.60;;;;;;;;;;6190345;28;20284;-80
2023/02/20 09:31:22;;;;;;;0.70;0.70;;;;;;;;;;6190578;28;20299;-81
2023/02/20 09:34:28;;;;;;;0.70;0.70;;;;;;;;;;6191730;28;20297;-81
2023/02/20 09:37:33;;;;;;;0.60;0.60;;;;;;;;;;6214880;28;20315;-80
2023/02/20 09:40:40;;;;;;;0.70;0.70;;;;;;;;;;6228854;28;20304;-81
2023/02/20 09:43:50;;;;;;;2.53;0.80;;;;;;;;;;6214191;28;20302;-81
2023/02/20 09:46:57;;;;;;;0.70;0.70;;;;;;;;;;6229123;28;20292;-81
2023/02/20 09:50:05;;;;;;;3.00;0.60;;;;;;;;;;6213995;28;20297;-81
2023/02/20 09:53:21;;;;;;;0.67;0.67;;;;;;;;;;6213692;28;20279;-79
2023/02/20 09:56:31;;;;;;;1.87;0.70;;;;;;;;;;6214000;28;20297;-81
2023/02/20 09:59:40;;;;;;;0.70;0.70;;;;;;;;;;6213770;28;20298;-79
2023/02/20 10:02:50;;;;;;;0.80;0.80;;;;;;;;;;6214148;28;20306;-81
2023/02/20 10:05:56;;;;;;;1.10;0.73;;;;;;;;;;6214347;28;20292;-79
2023/02/20 10:09:03;;;;;;;1.00;0.90;;;;;;;;;;6213285;28;20301;-78
2023/02/20 10:12:18;;;;;;;0.87;0.87;;;;;;;;;;6190883;28;20458;-79
2023/02/20 10:15:27;;;;;;;0.87;0.73;;;;;;;;;;6194099;28;20305;-79
2023/02/20 10:18:37;;;;;;;1.00;1.00;;;;;;;;;;6188724;28;20340;-80
2023/02/20 10:21:51;;;;;;;1.60;0.90;;;;;;;;;;6189815;28;20298;-80
2023/02/20 10:25:19;;;;;;;1.17;1.03;;;;;;;;;;6189368;28;20470;-80
2023/02/20 10:28:26;;;;;;;1.77;1.67;;;;;;;;;;6190197;28;20298;-78
2023/02/20 10:31:40;;;;;;;1.33;1.23;;;;;;;;;;6188840;28;20295;-79
2023/02/20 10:34:53;;;;;;;3.40;1.87;;;;;;;;;;6192790;28;20305;-78
2023/02/20 10:38:06;;;;;;;1.97;1.90;;;;;;;;;;6212627;28;20298;-78
2023/02/20 10:41:17;;;;;;;1.90;1.80;;;;;;;;;;6213363;28;20371;-78
2023/02/20 10:44:28;;;;;;;2.60;1.57;;;;;;;;;;6212594;28;20297;-80
2023/02/20 10:47:43;;;;;;;1.90;1.77;;;;;;;;;;6212764;28;20304;-79
2023/02/20 10:50:53;;;;;;;3.60;1.70;;;;;;;;;;6195292;28;20317;-81
2023/02/20 10:54:01;;;;;;;1.23;1.23;;;;;;;;;;6212545;28;20307;-79
2023/02/20 10:57:11;;;;;;;1.40;1.40;;;;;;;;;;6210459;28;20343;-80
2023/02/20 11:00:19;;;;;;;1.50;1.50;;;;;;;;;;6212122;28;20302;-79
2023/02/20 11:03:28;;;;;;;2.30;1.57;;;;;;;;;;6212047;28;20302;-81
2023/02/20 11:06:37;;;;;;;3.07;1.23;;;;;;;;;;6213434;28;20297;-80
2023/02/20 11:09:42;;;;;;;4.90;1.50;;;;;;;;;;6208593;28;20300;-82
2023/02/20 11:12:50;;;;;;;1.40;1.40;;;;;;;;;;6187951;28;20298;-78
2023/02/20 11:15:57;;;;;;;2.40;2.40;;;;;;;;;;6187345;28;20289;-77
2023/02/20 11:19:09;;;;;;;1.40;1.40;;;;;;;;;;6187891;28;20301;-79
2023/02/20 11:22:16;;;;;;;1.30;1.30;;;;;;;;;;6188051;28;20292;-79
2023/02/20 11:25:24;;;;;;;3.93;1.40;;;;;;;;;;6187814;28;20312;-78
2023/02/20 11:28:29;;;;;;;1.43;1.03;;;;;;;;;;6187791;28;20297;-81
2023/02/20 11:31:35;;;;;;;4.03;1.17;;;;;;;;;;6188219;28;20480;-78
2023/02/20 11:34:41;;;;;;;3.40;1.13;;;;;;;;;;6190570;28;20300;-78
2023/02/20 11:37:47;;;;;;;1.20;1.10;;;;;;;;;;6211581;28;20304;-77
2023/02/20 11:41:27;;;;;;;1.30;1.20;;;;;;;;;;6212765;28;20292;-78
2023/02/20 11:44:33;;;;;;;1.30;1.20;;;;;;;;;;6202602;28;20300;-75
2023/02/20 11:47:40;;;;;;;1.23;1.23;;;;;;;;;;6212841;28;20291;-76
2023/02/20 11:50:47;;;;;;;2.93;1.43;;;;;;;;;;6212457;28;20289;-77
2023/02/20 11:54:07;;;;;;;3.73;1.63;;;;;;;;;;6211883;28;20300;-77
2023/02/20 11:57:26;;;;;;;1.93;1.60;;;;;;;;;;6210614;28;20292;-78
2023/02/20 12:00:45;;;;;;;3.37;1.50;;;;;;;;;;6211247;28;20593;-79
2023/02/20 12:03:57;;;;;;;4.00;1.30;;;;;;;;;;6211105;28;20492;-79
2023/02/20 12:07:19;;;;;;;5.90;1.43;;;;;;;;;;6211905;28;20291;-79
2023/02/20 12:10:41;;;;;;;3.53;1.50;;;;;;;;;;6203105;28;20297;-79
2023/02/20 12:13:48;;;;;;;3.13;1.83;;;;;;;;;;6187415;28;20347;-80
2023/02/20 12:17:08;;;;;;;1.37;1.30;;;;;;;;;;6187675;28;20293;-77
2023/02/20 12:20:18;;;;;;;5.33;1.60;;;;;;;;;;6185578;28;20307;-78
2023/02/20 12:23:30;;;;;;;2.53;1.50;;;;;;;;;;6185681;28;20543;-78
2023/02/20 12:26:51;;;;;;;3.03;1.23;;;;;;;;;;6187349;28;20298;-78
2023/02/20 12:30:06;;;;;;;2.00;1.27;;;;;;;;;;6187120;28;20312;-79
2023/02/20 12:33:33;;;;;;;2.97;1.23;;;;;;;;;;6185579;28;20289;-78
2023/02/20 12:36:41;;;;;;;2.93;1.30;;;;;;;;;;6206269;28;20292;-78
2023/02/20 12:39:54;;;;;;;4.50;1.30;;;;;;;;;;6210552;28;20301;-79
2023/02/20 12:43:08;;;;;;;3.20;1.20;;;;;;;;;;6210470;28;20588;-78
2023/02/20 12:46:16;;;;;;;3.20;1.20;;;;;;;;;;6210735;28;20297;-79
2023/02/20 12:49:52;;;;;;;5.53;1.23;;;;;;;;;;6210506;28;20300;-79
2023/02/20 12:53:12;;;;;;;3.70;1.23;;;;;;;;;;6198332;28;20322;-78
2023/02/20 12:56:28;;;;;;;4.00;1.20;;;;;;;;;;6212442;28;20314;-78
2023/02/20 12:59:39;;;;;;;2.00;1.30;;;;;;;;;;6214050;28;20302;-78
2023/02/20 13:02:48;;;;;;;1.20;1.10;;;;;;;;;;6214377;28;20305;-78
2023/02/20 13:05:54;;;;;;;2.07;1.43;;;;;;;;;;6213639;28;20611;-78
2023/02/20 13:09:07;;;;;;;4.43;2.00;;;;;;;;;;6215521;28;20309;-78
2023/02/20 13:12:15;;;;;;;2.87;1.80;;;;;;;;;;6192172;28;20452;-79
2023/02/20 13:15:33;;;;;;;1.70;1.60;;;;;;;;;;6190704;28;20291;-78
2023/02/20 13:18:46;;;;;;;1.67;1.30;;;;;;;;;;6189626;28;20296;-78
2023/02/20 13:21:52;;;;;;;1.50;1.40;;;;;;;;;;6191044;28;20305;-78
2023/02/20 13:25:40;;;;;;;2.37;1.10;;;;;;;;;;6191071;28;20318;-78
2023/02/20 13:28:45;;;;;;;1.10;1.10;;;;;;;;;;6204644;28;20490;-78
2023/02/20 13:31:51;;;;;;;1.80;1.20;;;;;;;;;;6205508;28;20300;-78
2023/02/20 13:35:38;;;;;;;3.30;1.20;;;;;;;;;;6195223;28;20421;-78
2023/02/20 13:39:24;;;;;;;1.03;1.03;;;;;;;;;;6213895;28;20292;-78
2023/02/20 13:42:35;;;;;;;2.30;2.20;;;;;;;;;;6228447;28;20301;-78
2023/02/20 13:45:42;;;;;;;1.47;1.20;;;;;;;;;;6213348;28;20294;-78
2023/02/20 13:48:49;;;;;;;1.20;0.70;;;;;;;;;;6214351;28;20302;-77
2023/02/20 13:51:55;;;;;;;1.33;1.10;;;;;;;;;;6214779;28;20311;-78
2023/02/20 13:55:05;;;;;;;1.00;1.00;;;;;;;;;;6212574;28;20297;-78
2023/02/20 13:58:15;;;;;;;1.37;1.37;;;;;;;;;;6214201;28;20299;-78
2023/02/20 14:01:21;;;;;;;0.90;0.90;;;;;;;;;;6214560;28;20300;-78
2023/02/20 14:04:26;;;;;;;1.10;1.10;;;;;;;;;;6228884;28;20475;-77
2023/02/20 14:07:38;;;;;;;1.23;0.90;;;;;;;;;;6213191;28;20302;-79
2023/02/20 14:10:48;;;;;;;1.20;1.20;;;;;;;;;;6217971;28;20582;-79
2023/02/20 14:13:56;;;;;;;1.30;1.20;;;;;;;;;;6189752;28;20296;-79
2023/02/20 14:17:07;;;;;;;1.23;1.13;;;;;;;;;;6190041;28;20295;-79
2023/02/20 14:20:21;;;;;;;1.17;1.17;;;;;;;;;;6187773;28;20301;-80
2023/02/20 14:23:28;;;;;;;0.83;0.83;;;;;;;;;;6188953;28;20494;-79
2023/02/20 14:26:34;;;;;;;0.90;0.90;;;;;;;;;;6189094;28;20481;-77
2023/02/20 14:29:41;;;;;;;1.00;1.00;;;;;;;;;;6188804;28;20303;-80
2023/02/20 14:32:49;;;;;;;1.07;0.93;;;;;;;;;;6188502;28;20290;-77
2023/02/20 14:36:13;;;;;;;1.10;1.10;;;;;;;;;;6201797;28;20292;-78
2023/02/20 14:39:28;;;;;;;1.00;1.00;;;;;;;;;;6211819;28;20297;-79
2023/02/20 14:42:34;;;;;;;1.10;1.00;;;;;;;;;;6213505;28;20304;-78
2023/02/20 14:45:40;;;;;;;1.93;1.93;;;;;;;;;;6212086;28;20302;-79
2023/02/20 14:48:45;;;;;;;1.03;1.03;;;;;;;;;;6212807;28;20292;-81
2023/02/20 14:51:51;;;;;;;1.23;1.23;;;;;;;;;;6213938;28;20293;-79
2023/02/20 14:54:59;;;;;;;1.60;1.27;;;;;;;;;;6213050;28;20304;-79
2023/02/20 14:58:07;;;;;;;0.90;0.90;;;;;;;;;;6219678;28;20432;-79
2023/02/20 15:01:37;;;;;;;0.80;0.80;;;;;;;;;;6212615;28;20297;-80
2023/02/20 15:04:48;;;;;;;1.07;0.80;;;;;;;;;;6213414;28;20305;-80
2023/02/20 15:08:02;;;;;;;0.70;0.70;;;;;;;;;;6212039;28;20304;-79
2023/02/20 15:11:08;;;;;;;0.70;0.70;;;;;;;;;;6200584;28;20291;-79
2023/02/20 15:14:20;;;;;;;0.87;0.87;;;;;;;;;;6171833;28;20320;-80
2023/02/20 15:17:33;;;;;;;0.80;0.80;;;;;;;;;;6202705;28;20301;-79
2023/02/20 15:20:40;;;;;;;1.37;1.10;;;;;;;;;;6187052;28;20297;-80
2023/02/20 15:23:46;;;;;;;0.93;0.80;;;;;;;;;;6187670;28;20495;-80
2023/02/20 15:26:53;;;;;;;1.27;0.80;;;;;;;;;;6170910;28;20474;-79
2023/02/20 15:30:11;;;;;;;0.80;0.80;;;;;;;;;;6187410;28;20308;-79
2023/02/20 15:33:17;;;;;;;0.73;0.73;;;;;;;;;;6186462;28;20298;-79
2023/02/20 15:36:25;;;;;;;0.80;0.80;;;;;;;;;;6204505;28;20407;-78
2023/02/20 15:39:30;;;;;;;0.73;0.73;;;;;;;;;;6211336;28;20298;-80
2023/02/20 15:42:35;;;;;;;1.33;1.00;;;;;;;;;;6211471;28;20292;-79
2023/02/20 15:45:40;;;;;;;0.70;0.70;;;;;;;;;;6210708;28;20286;-78
2023/02/20 15:48:47;;;;;;;1.03;1.03;;;;;;;;;;6209652;28;20576;-80
2023/02/20 15:51:53;;;;;;;1.23;1.23;;;;;;;;;;6227141;28;20308;-79
2023/02/20 15:55:06;;;;;;;1.10;1.10;;;;;;;;;;6212510;28;20301;-80
2023/02/20 15:58:22;;;;;;;0.83;0.83;;;;;;;;;;6213951;28;20292;-79
2023/02/20 16:01:32;;;;;;;1.10;1.10;;;;;;;;;;6214116;28;20297;-82
2023/02/20 16:04:39;;;;;;;1.83;0.90;;;;;;;;;;6213665;28;20306;-84
2023/02/20 16:07:44;;;;;;;1.10;1.10;;;;;;;;;;6212230;28;20308;-83
2023/02/20 16:10:50;;;;;;;1.30;1.13;;;;;;;;;;6201587;28;20300;-81
2023/02/20 16:13:57;;;;;;;1.23;1.23;;;;;;;;;;6193860;28;20305;-80
2023/02/20 16:17:02;;;;;;;1.23;1.23;;;;;;;;;;6188981;28;20570;-79
2023/02/20 16:20:15;;;;;;;1.27;1.00;;;;;;;;;;6189020;28;20307;-79
2023/02/20 16:23:22;;;;;;;1.33;1.30;;;;;;;;;;6193677;28;20599;-79
2023/02/20 16:26:29;;;;;;;3.07;1.13;;;;;;;;;;6195143;28;20288;-81
2023/02/20 16:29:37;;;;;;;3.20;1.00;;;;;;;;;;6187371;28;20296;-80
2023/02/20 16:32:43;;;;;;;2.90;1.03;;;;;;;;;;6190083;28;20350;-80
2023/02/20 16:35:51;;;;;;;2.40;0.93;;;;;;;;;;6204068;28;20295;-80
2023/02/20 16:39:01;;;;;;;1.20;1.20;;;;;;;;;;6230743;28;20307;-80
2023/02/20 16:42:31;;;;;;;2.00;1.30;;;;;;;;;;6214895;28;20315;-81
2023/02/20 16:45:37;;;;;;;1.03;1.00;;;;;;;;;;6230547;28;20285;-81
2023/02/20 16:48:47;;;;;;;5.23;1.30;;;;;;;;;;6218259;28;20288;-77
2023/02/20 16:52:00;;;;;;;4.57;3.50;;;;;;;;;;6215892;28;20299;-77
2023/02/20 16:55:19;;;;;;;1.97;1.87;;;;;;;;;;6214368;28;20501;-77
2023/02/20 16:58:24;;;;;;;1.20;1.20;;;;;;;;;;6221359;28;20573;-78
2023/02/20 17:01:30;;;;;;;1.07;1.07;;;;;;;;;;6215595;28;20306;-81
2023/02/20 17:04:35;;;;;;;1.00;1.00;;;;;;;;;;6214809;28;20485;-79
2023/02/20 17:07:42;;;;;;;1.43;1.10;;;;;;;;;;6213160;28;20355;-78
2023/02/20 17:10:49;;;;;;;1.43;1.03;;;;;;;;;;6204315;28;20300;-79
2023/02/20 17:13:55;;;;;;;1.17;1.13;;;;;;;;;;6190855;28;20316;-76
2023/02/20 17:17:00;;;;;;;2.40;1.10;;;;;;;;;;6191906;28;20596;-78
2023/02/20 17:20:06;;;;;;;1.47;1.37;;;;;;;;;;6189131;28;20406;-80
2023/02/20 17:23:13;;;;;;;1.03;1.03;;;;;;;;;;6190344;28;20294;-80
2023/02/20 17:26:18;;;;;;;2.53;2.20;;;;;;;;;;6190899;28;20301;-78
2023/02/20 17:29:24;;;;;;;11.37;7.40;;;;;;;;;;6190309;28;20300;-79
2023/02/20 17:32:29;;;;;;;14.43;6.90;;;;;;;;;;6205807;28;20479;-79
2023/02/20 17:35:37;;;;;;;4.00;2.80;;;;;;;;;;6201213;28;20304;-80
2023/02/20 17:38:44;;;;;;;3.50;1.10;;;;;;;;;;6214028;28;20310;-79
2023/02/20 17:41:50;;;;;;;2.37;1.37;;;;;;;;;;6214520;28;20569;-81
2023/02/20 17:44:55;;;;;;;1.13;1.10;;;;;;;;;;6213943;28;20288;-81
2023/02/20 17:48:01;;;;;;;2.10;1.30;;;;;;;;;;6214471;28;20452;-84
2023/02/20 17:51:07;;;;;;;1.67;1.10;;;;;;;;;;6214237;28;20276;-81
2023/02/20 17:54:14;;;;;;;0.90;0.90;;;;;;;;;;6229201;28;20516;-84
2023/02/20 17:57:20;;;;;;;1.60;1.00;;;;;;;;;;6214118;28;20280;-80
2023/02/20 18:00:26;;;;;;;1.20;1.20;;;;;;;;;;6214478;28;20303;-80
2023/02/20 18:03:32;;;;;;;2.03;1.30;;;;;;;;;;6213484;28;20358;-82
2023/02/20 18:06:38;;;;;;;1.20;1.20;;;;;;;;;;6214084;28;20290;-81
2023/02/20 18:09:45;;;;;;;1.13;1.13;;;;;;;;;;6211050;28;20294;-77
2023/02/20 18:13:02;;;;;;;1.10;1.00;;;;;;;;;;6189194;28;20292;-81
2023/02/20 18:16:07;;;;;;;1.10;1.10;;;;;;;;;;6190080;28;20305;-77
2023/02/20 18:19:16;;;;;;;1.97;1.00;;;;;;;;;;6189000;28;20374;-77
2023/02/20 18:22:21;;;;;;;3.77;3.50;;;;;;;;;;6188748;28;20486;-79
2023/02/20 18:25:28;;;;;;;3.43;3.33;;;;;;;;;;6188856;28;20310;-79
2023/02/20 18:28:44;;;;;;;9.63;5.60;;;;;;;;;;6188707;28;20314;-79
2023/02/20 18:31:50;;;;;;;11.00;5.17;;;;;;;;;;6190006;28;20315;-81
2023/02/20 18:34:58;;;;;;;6.87;5.80;;;;;;;;;;6194426;28;20309;-81
2023/02/20 18:38:03;;;;;;;2.00;1.90;;;;;;;;;;6213679;28;20299;-81
2023/02/20 18:41:11;;;;;;;1.03;1.03;;;;;;;;;;6213642;28;20297;-80
2023/02/20 18:44:18;;;;;;;1.30;1.30;;;;;;;;;;6211466;28;20623;-81
2023/02/20 18:47:23;;;;;;;2.53;1.17;;;;;;;;;;6213402;28;20289;-80
2023/02/20 18:50:28;;;;;;;0.90;0.90;;;;;;;;;;6213246;28;20304;-80
2023/02/20 18:53:41;;;;;;;1.10;1.10;;;;;;;;;;6212401;28;20454;-80
2023/02/20 18:56:50;;;;;;;0.90;0.90;;;;;;;;;;6228961;28;20299;-80
2023/02/20 18:59:55;;;;;;;0.80;0.80;;;;;;;;;;6214894;28;20301;-80
2023/02/20 19:03:02;;;;;;;0.90;0.90;;;;;;;;;;6213445;28;20297;-80
2023/02/20 19:06:07;;;;;;;0.90;0.90;;;;;;;;;;6212579;28;20277;-80
2023/02/20 19:09:14;;;;;;;1.00;1.00;;;;;;;;;;6212460;28;20499;-80
2023/02/20 19:12:21;;;;;;;0.83;0.83;;;;;;;;;;6189836;28;20426;-81
2023/02/20 19:15:28;;;;;;;0.90;0.90;;;;;;;;;;6186949;28;20297;-79